sensor_id;sensor_type;location;lat;lon;timestamp;P1;durP1;ratioP1;P2;durP2;ratioP2
12681;SDS011;6405;59.208;18.216;2023-02-28T00:01:20;3.57;;;2.30;;
12681;SDS011;6405;59.208;18.216;2023-02-28T00:03:46;3.53;;;2.63;;
12681;SDS011;6405;59.208;18.216;2023-02-28T00:06:11;4.17;;;2.83;;
12681;SDS011;6405;59.208;18.216;2023-02-28T00:08:37;4.43;;;2.47;;
12681;SDS011;6405;59.208;18.216;2023-02-28T00:11:08;4.33;;;2.43;;
12681;SDS011;6405;59.208;18.216;2023-02-28T00:13:37;3.77;;;2.57;;
12681;SDS011;6405;59.208;18.216;2023-02-28T00:16:06;4.43;;;2.83;;
12681;SDS011;6405;59.208;18.216;2023-02-28T00:18:34;4.53;;;2.73;;
12681;SDS011;6405;59.208;18.216;2023-02-28T00:21:00;4.60;;;2.43;;
12681;SDS011;6405;59.208;18.216;2023-02-28T00:23:26;4.60;;;2.90;;
12681;SDS011;6405;59.208;18.216;2023-02-28T00:25:52;3.90;;;2.80;;
12681;SDS011;6405;59.208;18.216;2023-02-28T00:28:18;4.03;;;2.53;;
12681;SDS011;6405;59.208;18.216;2023-02-28T00:30:44;3.80;;;2.40;;
12681;SDS011;6405;59.208;18.216;2023-02-28T00:33:11;2.93;;;1.57;;
12681;SDS011;6405;59.208;18.216;2023-02-28T00:35:37;3.83;;;2.17;;
12681;SDS011;6405;59.208;18.216;2023-02-28T00:38:03;3.63;;;1.93;;
12681;SDS011;6405;59.208;18.216;2023-02-28T00:40:29;2.13;;;1.60;;
12681;SDS011;6405;59.208;18.216;2023-02-28T00:42:55;2.17;;;1.53;;
12681;SDS011;6405;59.208;18.216;2023-02-28T00:45:20;3.27;;;1.60;;
12681;SDS011;6405;59.208;18.216;2023-02-28T00:47:46;2.57;;;1.43;;
12681;SDS011;6405;59.208;18.216;2023-02-28T00:50:14;3.23;;;1.40;;
12681;SDS011;6405;59.208;18.216;2023-02-28T00:52:42;2.13;;;1.00;;
12681;SDS011;6405;59.208;18.216;2023-02-28T00:55:07;2.03;;;1.20;;
12681;SDS011;6405;59.208;18.216;2023-02-28T00:57:33;1.87;;;1.40;;
12681;SDS011;6405;59.208;18.216;2023-02-28T00:59:59;2.03;;;1.30;;
12681;SDS011;6405;59.208;18.216;2023-02-28T01:02:24;2.87;;;1.77;;
12681;SDS011;6405;59.208;18.216;2023-02-28T01:04:50;2.03;;;1.37;;
12681;SDS011;6405;59.208;18.216;2023-02-28T01:07:16;3.70;;;0.90;;
12681;SDS011;6405;59.208;18.216;2023-02-28T01:09:41;1.90;;;1.00;;
12681;SDS011;6405;59.208;18.216;2023-02-28T01:12:07;1.87;;;1.50;;
12681;SDS011;6405;59.208;18.216;2023-02-28T01:14:33;2.80;;;1.20;;
12681;SDS011;6405;59.208;18.216;2023-02-28T01:17:00;1.57;;;0.93;;
12681;SDS011;6405;59.208;18.216;2023-02-28T01:19:26;0.97;;;0.83;;
12681;SDS011;6405;59.208;18.216;2023-02-28T01:21:52;1.43;;;1.10;;
12681;SDS011;6405;59.208;18.216;2023-02-28T01:24:17;1.87;;;1.00;;
12681;SDS011;6405;59.208;18.216;2023-02-28T01:26:43;1.33;;;1.00;;
12681;SDS011;6405;59.208;18.216;2023-02-28T01:29:09;1.13;;;0.90;;
12681;SDS011;6405;59.208;18.216;2023-02-28T01:31:35;1.37;;;0.70;;
12681;SDS011;6405;59.208;18.216;2023-02-28T01:34:01;1.67;;;1.00;;
12681;SDS011;6405;59.208;18.216;2023-02-28T01:36:27;2.60;;;1.20;;
12681;SDS011;6405;59.208;18.216;2023-02-28T01:38:53;1.50;;;0.67;;
12681;SDS011;6405;59.208;18.216;2023-02-28T01:41:23;5.60;;;1.37;;
12681;SDS011;6405;59.208;18.216;2023-02-28T01:43:56;2.00;;;1.20;;
12681;SDS011;6405;59.208;18.216;2023-02-28T01:46:24;2.73;;;1.20;;
12681;SDS011;6405;59.208;18.216;2023-02-28T01:49:00;0.97;;;0.87;;
12681;SDS011;6405;59.208;18.216;2023-02-28T01:51:29;1.20;;;0.90;;
12681;SDS011;6405;59.208;18.216;2023-02-28T01:54:23;1.10;;;1.00;;
12681;SDS011;6405;59.208;18.216;2023-02-28T01:56:53;2.17;;;1.03;;
12681;SDS011;6405;59.208;18.216;2023-02-28T01:59:30;1.20;;;0.90;;
12681;SDS011;6405;59.208;18.216;2023-02-28T02:02:03;1.20;;;0.90;;
12681;SDS011;6405;59.208;18.216;2023-02-28T02:04:34;1.53;;;0.70;;
12681;SDS011;6405;59.208;18.216;2023-02-28T02:07:06;1.27;;;0.93;;
12681;SDS011;6405;59.208;18.216;2023-02-28T02:09:33;0.77;;;0.60;;
12681;SDS011;6405;59.208;18.216;2023-02-28T02:11:59;2.03;;;0.50;;
12681;SDS011;6405;59.208;18.216;2023-02-28T02:14:53;0.67;;;0.60;;
12681;SDS011;6405;59.208;18.216;2023-02-28T02:17:39;0.53;;;0.50;;
12681;SDS011;6405;59.208;18.216;2023-02-28T02:37:06;0.70;;;0.50;;
12681;SDS011;6405;59.208;18.216;2023-02-28T02:42:39;1.23;;;1.00;;
12681;SDS011;6405;59.208;18.216;2023-02-28T02:47:53;1.20;;;0.73;;
12681;SDS011;6405;59.208;18.216;2023-02-28T02:50:26;0.70;;;0.50;;
12681;SDS011;6405;59.208;18.216;2023-02-28T02:52:57;0.87;;;0.57;;
12681;SDS011;6405;59.208;18.216;2023-02-28T02:55:25;0.87;;;0.60;;
12681;SDS011;6405;59.208;18.216;2023-02-28T02:57:53;1.00;;;0.73;;
12681;SDS011;6405;59.208;18.216;2023-02-28T03:00:24;0.67;;;0.50;;
12681;SDS011;6405;59.208;18.216;2023-02-28T03:02:55;0.90;;;0.60;;
12681;SDS011;6405;59.208;18.216;2023-02-28T03:05:35;0.50;;;0.50;;
12681;SDS011;6405;59.208;18.216;2023-02-28T03:08:08;0.70;;;0.70;;
12681;SDS011;6405;59.208;18.216;2023-02-28T03:10:36;0.90;;;0.60;;
12681;SDS011;6405;59.208;18.216;2023-02-28T03:13:22;0.60;;;0.57;;
12681;SDS011;6405;59.208;18.216;2023-02-28T03:21:38;0.70;;;0.67;;
12681;SDS011;6405;59.208;18.216;2023-02-28T03:24:19;1.37;;;0.63;;
12681;SDS011;6405;59.208;18.216;2023-02-28T03:27:09;1.23;;;0.70;;
12681;SDS011;6405;59.208;18.216;2023-02-28T03:29:44;0.87;;;0.60;;
12681;SDS011;6405;59.208;18.216;2023-02-28T03:32:19;1.00;;;0.70;;
12681;SDS011;6405;59.208;18.216;2023-02-28T03:35:00;0.80;;;0.60;;
12681;SDS011;6405;59.208;18.216;2023-02-28T03:37:31;0.60;;;0.47;;
12681;SDS011;6405;59.208;18.216;2023-02-28T03:40:03;1.00;;;0.60;;
12681;SDS011;6405;59.208;18.216;2023-02-28T03:42:34;1.07;;;0.57;;
12681;SDS011;6405;59.208;18.216;2023-02-28T03:45:05;1.03;;;0.70;;
12681;SDS011;6405;59.208;18.216;2023-02-28T03:50:24;1.30;;;0.70;;
12681;SDS011;6405;59.208;18.216;2023-02-28T03:53:07;0.67;;;0.50;;
12681;SDS011;6405;59.208;18.216;2023-02-28T03:55:44;2.27;;;0.87;;
12681;SDS011;6405;59.208;18.216;2023-02-28T04:01:11;0.60;;;0.53;;
12681;SDS011;6405;59.208;18.216;2023-02-28T04:03:41;1.60;;;0.80;;
12681;SDS011;6405;59.208;18.216;2023-02-28T04:06:08;0.80;;;0.67;;
12681;SDS011;6405;59.208;18.216;2023-02-28T04:08:40;0.50;;;0.50;;
12681;SDS011;6405;59.208;18.216;2023-02-28T04:13:50;0.67;;;0.60;;
12681;SDS011;6405;59.208;18.216;2023-02-28T04:16:15;0.60;;;0.50;;
12681;SDS011;6405;59.208;18.216;2023-02-28T04:18:41;0.80;;;0.40;;
12681;SDS011;6405;59.208;18.216;2023-02-28T04:21:10;0.90;;;0.53;;
12681;SDS011;6405;59.208;18.216;2023-02-28T04:23:37;2.00;;;0.60;;
12681;SDS011;6405;59.208;18.216;2023-02-28T04:26:03;1.00;;;0.70;;
12681;SDS011;6405;59.208;18.216;2023-02-28T04:28:29;0.60;;;0.43;;
12681;SDS011;6405;59.208;18.216;2023-02-28T04:30:59;0.80;;;0.53;;
12681;SDS011;6405;59.208;18.216;2023-02-28T04:33:27;0.97;;;0.60;;
12681;SDS011;6405;59.208;18.216;2023-02-28T04:35:58;0.87;;;0.57;;
12681;SDS011;6405;59.208;18.216;2023-02-28T04:38:37;0.80;;;0.53;;
12681;SDS011;6405;59.208;18.216;2023-02-28T04:41:03;0.70;;;0.60;;
12681;SDS011;6405;59.208;18.216;2023-02-28T04:43:30;0.80;;;0.60;;
12681;SDS011;6405;59.208;18.216;2023-02-28T04:45:56;1.00;;;0.70;;
12681;SDS011;6405;59.208;18.216;2023-02-28T04:48:23;1.03;;;0.73;;
12681;SDS011;6405;59.208;18.216;2023-02-28T04:50:49;1.33;;;0.67;;
12681;SDS011;6405;59.208;18.216;2023-02-28T04:53:16;0.90;;;0.47;;
12681;SDS011;6405;59.208;18.216;2023-02-28T04:55:42;1.67;;;0.70;;
12681;SDS011;6405;59.208;18.216;2023-02-28T04:58:08;0.97;;;0.60;;
12681;SDS011;6405;59.208;18.216;2023-02-28T05:00:33;1.77;;;0.60;;
12681;SDS011;6405;59.208;18.216;2023-02-28T05:02:59;0.47;;;0.40;;
12681;SDS011;6405;59.208;18.216;2023-02-28T05:05:25;0.70;;;0.70;;
12681;SDS011;6405;59.208;18.216;2023-02-28T05:07:50;0.90;;;0.60;;
12681;SDS011;6405;59.208;18.216;2023-02-28T05:10:16;0.80;;;0.40;;
12681;SDS011;6405;59.208;18.216;2023-02-28T05:12:42;0.83;;;0.53;;
12681;SDS011;6405;59.208;18.216;2023-02-28T05:15:08;0.97;;;0.80;;
12681;SDS011;6405;59.208;18.216;2023-02-28T05:17:39;0.50;;;0.50;;
12681;SDS011;6405;59.208;18.216;2023-02-28T05:20:05;1.27;;;0.50;;
12681;SDS011;6405;59.208;18.216;2023-02-28T05:22:32;0.70;;;0.70;;
12681;SDS011;6405;59.208;18.216;2023-02-28T05:24:57;0.60;;;0.57;;
12681;SDS011;6405;59.208;18.216;2023-02-28T05:27:23;1.23;;;0.50;;
12681;SDS011;6405;59.208;18.216;2023-02-28T05:29:49;0.60;;;0.50;;
12681;SDS011;6405;59.208;18.216;2023-02-28T05:32:14;1.00;;;0.60;;
12681;SDS011;6405;59.208;18.216;2023-02-28T05:34:40;0.70;;;0.60;;
12681;SDS011;6405;59.208;18.216;2023-02-28T05:37:10;1.50;;;0.77;;
12681;SDS011;6405;59.208;18.216;2023-02-28T05:39:40;0.83;;;0.50;;
12681;SDS011;6405;59.208;18.216;2023-02-28T05:42:07;0.97;;;0.80;;
12681;SDS011;6405;59.208;18.216;2023-02-28T05:44:33;2.10;;;1.10;;
12681;SDS011;6405;59.208;18.216;2023-02-28T05:46:58;1.10;;;0.70;;
12681;SDS011;6405;59.208;18.216;2023-02-28T05:49:24;1.00;;;0.70;;
12681;SDS011;6405;59.208;18.216;2023-02-28T05:51:50;0.90;;;0.83;;
12681;SDS011;6405;59.208;18.216;2023-02-28T05:54:15;1.77;;;1.43;;
12681;SDS011;6405;59.208;18.216;2023-02-28T05:56:41;1.50;;;0.97;;
12681;SDS011;6405;59.208;18.216;2023-02-28T05:59:09;0.70;;;0.60;;
12681;SDS011;6405;59.208;18.216;2023-02-28T06:01:37;1.00;;;0.80;;
12681;SDS011;6405;59.208;18.216;2023-02-28T06:04:07;1.60;;;1.30;;
12681;SDS011;6405;59.208;18.216;2023-02-28T06:06:34;2.57;;;0.87;;
12681;SDS011;6405;59.208;18.216;2023-02-28T06:09:01;1.83;;;1.13;;
12681;SDS011;6405;59.208;18.216;2023-02-28T06:11:30;0.83;;;0.83;;
12681;SDS011;6405;59.208;18.216;2023-02-28T06:13:56;1.50;;;1.03;;
12681;SDS011;6405;59.208;18.216;2023-02-28T06:16:24;1.10;;;0.73;;
12681;SDS011;6405;59.208;18.216;2023-02-28T06:18:51;1.20;;;0.87;;
12681;SDS011;6405;59.208;18.216;2023-02-28T06:21:17;2.20;;;0.70;;
12681;SDS011;6405;59.208;18.216;2023-02-28T06:23:43;0.60;;;0.60;;
12681;SDS011;6405;59.208;18.216;2023-02-28T06:26:09;1.10;;;0.80;;
12681;SDS011;6405;59.208;18.216;2023-02-28T06:28:35;1.17;;;0.60;;
12681;SDS011;6405;59.208;18.216;2023-02-28T06:31:11;2.20;;;1.20;;
12681;SDS011;6405;59.208;18.216;2023-02-28T06:33:38;1.80;;;1.00;;
12681;SDS011;6405;59.208;18.216;2023-02-28T06:36:05;0.73;;;0.60;;
12681;SDS011;6405;59.208;18.216;2023-02-28T06:38:32;1.20;;;0.70;;
12681;SDS011;6405;59.208;18.216;2023-02-28T06:40:59;0.67;;;0.47;;
12681;SDS011;6405;59.208;18.216;2023-02-28T06:43:27;4.13;;;0.60;;
12681;SDS011;6405;59.208;18.216;2023-02-28T06:45:54;1.00;;;0.80;;
12681;SDS011;6405;59.208;18.216;2023-02-28T06:48:21;1.67;;;1.37;;
12681;SDS011;6405;59.208;18.216;2023-02-28T06:50:47;3.37;;;1.50;;
12681;SDS011;6405;59.208;18.216;2023-02-28T06:53:13;6.20;;;1.40;;
12681;SDS011;6405;59.208;18.216;2023-02-28T06:55:39;1.70;;;0.90;;
12681;SDS011;6405;59.208;18.216;2023-02-28T06:58:06;7.60;;;1.57;;
12681;SDS011;6405;59.208;18.216;2023-02-28T07:00:42;3.30;;;1.27;;
12681;SDS011;6405;59.208;18.216;2023-02-28T07:03:09;2.57;;;0.80;;
12681;SDS011;6405;59.208;18.216;2023-02-28T07:05:35;1.33;;;1.10;;
12681;SDS011;6405;59.208;18.216;2023-02-28T07:08:02;1.73;;;0.53;;
12681;SDS011;6405;59.208;18.216;2023-02-28T07:10:29;0.40;;;0.33;;
12681;SDS011;6405;59.208;18.216;2023-02-28T07:12:54;0.67;;;0.60;;
12681;SDS011;6405;59.208;18.216;2023-02-28T07:15:20;0.37;;;0.37;;
12681;SDS011;6405;59.208;18.216;2023-02-28T07:17:46;1.17;;;0.70;;
12681;SDS011;6405;59.208;18.216;2023-02-28T07:20:12;0.67;;;0.50;;
12681;SDS011;6405;59.208;18.216;2023-02-28T07:22:37;0.97;;;0.40;;
12681;SDS011;6405;59.208;18.216;2023-02-28T07:25:04;0.90;;;0.70;;
12681;SDS011;6405;59.208;18.216;2023-02-28T07:27:30;1.37;;;0.90;;
12681;SDS011;6405;59.208;18.216;2023-02-28T07:29:56;1.93;;;0.70;;
12681;SDS011;6405;59.208;18.216;2023-02-28T07:32:21;1.47;;;0.57;;
12681;SDS011;6405;59.208;18.216;2023-02-28T07:34:47;1.80;;;0.70;;
12681;SDS011;6405;59.208;18.216;2023-02-28T07:37:13;1.80;;;0.67;;
12681;SDS011;6405;59.208;18.216;2023-02-28T07:39:39;1.30;;;0.60;;
12681;SDS011;6405;59.208;18.216;2023-02-28T07:42:07;0.60;;;0.50;;
12681;SDS011;6405;59.208;18.216;2023-02-28T07:44:36;0.67;;;0.50;;
12681;SDS011;6405;59.208;18.216;2023-02-28T07:47:05;2.10;;;0.40;;
12681;SDS011;6405;59.208;18.216;2023-02-28T07:49:32;0.73;;;0.70;;
12681;SDS011;6405;59.208;18.216;2023-02-28T07:51:58;0.30;;;0.30;;
12681;SDS011;6405;59.208;18.216;2023-02-28T07:54:24;0.67;;;0.60;;
12681;SDS011;6405;59.208;18.216;2023-02-28T07:56:49;0.67;;;0.43;;
12681;SDS011;6405;59.208;18.216;2023-02-28T07:59:15;0.90;;;0.60;;
12681;SDS011;6405;59.208;18.216;2023-02-28T08:01:41;0.83;;;0.30;;
12681;SDS011;6405;59.208;18.216;2023-02-28T08:04:06;0.60;;;0.40;;
12681;SDS011;6405;59.208;18.216;2023-02-28T08:06:32;0.60;;;0.33;;
12681;SDS011;6405;59.208;18.216;2023-02-28T08:08:57;0.60;;;0.60;;
12681;SDS011;6405;59.208;18.216;2023-02-28T08:11:23;0.80;;;0.30;;
12681;SDS011;6405;59.208;18.216;2023-02-28T08:13:49;0.90;;;0.40;;
12681;SDS011;6405;59.208;18.216;2023-02-28T08:16:14;0.40;;;0.30;;
12681;SDS011;6405;59.208;18.216;2023-02-28T08:18:42;0.93;;;0.50;;
12681;SDS011;6405;59.208;18.216;2023-02-28T08:21:09;0.60;;;0.40;;
12681;SDS011;6405;59.208;18.216;2023-02-28T08:23:35;0.57;;;0.40;;
12681;SDS011;6405;59.208;18.216;2023-02-28T08:26:01;0.30;;;0.30;;
12681;SDS011;6405;59.208;18.216;2023-02-28T08:28:27;0.40;;;0.40;;
12681;SDS011;6405;59.208;18.216;2023-02-28T08:30:53;0.77;;;0.50;;
12681;SDS011;6405;59.208;18.216;2023-02-28T08:33:19;1.43;;;0.50;;
12681;SDS011;6405;59.208;18.216;2023-02-28T08:35:44;1.03;;;0.40;;
12681;SDS011;6405;59.208;18.216;2023-02-28T08:38:10;0.40;;;0.30;;
12681;SDS011;6405;59.208;18.216;2023-02-28T08:40:36;0.30;;;0.30;;
12681;SDS011;6405;59.208;18.216;2023-02-28T08:43:01;0.63;;;0.40;;
12681;SDS011;6405;59.208;18.216;2023-02-28T08:45:27;0.57;;;0.30;;
12681;SDS011;6405;59.208;18.216;2023-02-28T08:47:54;0.40;;;0.40;;
12681;SDS011;6405;59.208;18.216;2023-02-28T08:50:20;0.20;;;0.20;;
12681;SDS011;6405;59.208;18.216;2023-02-28T08:52:46;0.70;;;0.30;;
12681;SDS011;6405;59.208;18.216;2023-02-28T08:55:12;0.30;;;0.30;;
12681;SDS011;6405;59.208;18.216;2023-02-28T08:57:38;0.80;;;0.30;;
12681;SDS011;6405;59.208;18.216;2023-02-28T09:00:03;1.13;;;0.40;;
12681;SDS011;6405;59.208;18.216;2023-02-28T09:02:32;0.30;;;0.20;;
12681;SDS011;6405;59.208;18.216;2023-02-28T09:04:58;1.03;;;0.40;;
12681;SDS011;6405;59.208;18.216;2023-02-28T09:07:24;0.83;;;0.60;;
12681;SDS011;6405;59.208;18.216;2023-02-28T09:09:50;0.30;;;0.30;;
12681;SDS011;6405;59.208;18.216;2023-02-28T09:12:23;1.97;;;0.40;;
12681;SDS011;6405;59.208;18.216;2023-02-28T09:14:50;0.30;;;0.20;;
12681;SDS011;6405;59.208;18.216;2023-02-28T09:17:16;3.87;;;0.67;;
12681;SDS011;6405;59.208;18.216;2023-02-28T09:19:42;1.50;;;0.40;;
12681;SDS011;6405;59.208;18.216;2023-02-28T09:22:09;1.43;;;0.80;;
12681;SDS011;6405;59.208;18.216;2023-02-28T09:24:38;2.97;;;1.47;;
12681;SDS011;6405;59.208;18.216;2023-02-28T09:27:04;2.90;;;1.60;;
12681;SDS011;6405;59.208;18.216;2023-02-28T09:29:30;0.47;;;0.40;;
12681;SDS011;6405;59.208;18.216;2023-02-28T09:31:57;0.30;;;0.30;;
12681;SDS011;6405;59.208;18.216;2023-02-28T09:34:24;0.97;;;0.33;;
12681;SDS011;6405;59.208;18.216;2023-02-28T09:36:50;2.37;;;1.33;;
12681;SDS011;6405;59.208;18.216;2023-02-28T09:39:20;1.03;;;0.57;;
12681;SDS011;6405;59.208;18.216;2023-02-28T09:41:48;1.73;;;0.43;;
12681;SDS011;6405;59.208;18.216;2023-02-28T09:44:24;0.80;;;0.30;;
12681;SDS011;6405;59.208;18.216;2023-02-28T09:49:52;1.00;;;0.60;;
12681;SDS011;6405;59.208;18.216;2023-02-28T09:52:21;0.60;;;0.30;;
12681;SDS011;6405;59.208;18.216;2023-02-28T09:54:53;1.30;;;0.37;;
12681;SDS011;6405;59.208;18.216;2023-02-28T09:59:58;0.30;;;0.30;;
12681;SDS011;6405;59.208;18.216;2023-02-28T10:05:13;0.40;;;0.40;;
12681;SDS011;6405;59.208;18.216;2023-02-28T10:07:48;0.40;;;0.20;;
12681;SDS011;6405;59.208;18.216;2023-02-28T10:16:08;1.10;;;0.20;;
12681;SDS011;6405;59.208;18.216;2023-02-28T10:18:44;0.87;;;0.23;;
12681;SDS011;6405;59.208;18.216;2023-02-28T10:21:18;0.73;;;0.30;;
12681;SDS011;6405;59.208;18.216;2023-02-28T10:23:55;0.40;;;0.27;;
12681;SDS011;6405;59.208;18.216;2023-02-28T10:26:33;0.67;;;0.33;;
12681;SDS011;6405;59.208;18.216;2023-02-28T10:28:59;5.00;;;2.00;;
12681;SDS011;6405;59.208;18.216;2023-02-28T10:31:25;1.10;;;0.70;;
12681;SDS011;6405;59.208;18.216;2023-02-28T10:33:50;1.00;;;0.60;;
12681;SDS011;6405;59.208;18.216;2023-02-28T10:36:17;1.87;;;0.60;;
12681;SDS011;6405;59.208;18.216;2023-02-28T10:38:45;0.47;;;0.40;;
12681;SDS011;6405;59.208;18.216;2023-02-28T10:41:16;2.40;;;1.33;;
12681;SDS011;6405;59.208;18.216;2023-02-28T10:43:52;3.53;;;1.00;;
12681;SDS011;6405;59.208;18.216;2023-02-28T10:46:22;0.60;;;0.57;;
12681;SDS011;6405;59.208;18.216;2023-02-28T10:49:12;1.50;;;0.73;;
12681;SDS011;6405;59.208;18.216;2023-02-28T10:51:45;0.70;;;0.40;;
12681;SDS011;6405;59.208;18.216;2023-02-28T10:54:16;0.30;;;0.30;;
12681;SDS011;6405;59.208;18.216;2023-02-28T10:56:44;1.67;;;0.40;;
12681;SDS011;6405;59.208;18.216;2023-02-28T10:59:27;1.27;;;0.97;;
12681;SDS011;6405;59.208;18.216;2023-02-28T11:01:55;1.43;;;0.60;;
12681;SDS011;6405;59.208;18.216;2023-02-28T11:06:58;1.73;;;0.60;;
12681;SDS011;6405;59.208;18.216;2023-02-28T11:12:04;0.87;;;0.60;;
12681;SDS011;6405;59.208;18.216;2023-02-28T11:14:49;2.30;;;0.53;;
12681;SDS011;6405;59.208;18.216;2023-02-28T11:17:21;0.73;;;0.40;;
12681;SDS011;6405;59.208;18.216;2023-02-28T11:19:56;0.90;;;0.50;;
12681;SDS011;6405;59.208;18.216;2023-02-28T11:22:28;4.50;;;2.00;;
12681;SDS011;6405;59.208;18.216;2023-02-28T11:24:58;6.60;;;1.50;;
12681;SDS011;6405;59.208;18.216;2023-02-28T11:29:55;1.90;;;0.50;;
12681;SDS011;6405;59.208;18.216;2023-02-28T11:32:22;1.00;;;0.47;;
12681;SDS011;6405;59.208;18.216;2023-02-28T11:37:36;0.60;;;0.40;;
12681;SDS011;6405;59.208;18.216;2023-02-28T11:40:13;0.60;;;0.40;;
12681;SDS011;6405;59.208;18.216;2023-02-28T11:45:43;0.40;;;0.20;;
12681;SDS011;6405;59.208;18.216;2023-02-28T11:53:39;1.77;;;0.33;;
12681;SDS011;6405;59.208;18.216;2023-02-28T11:59:22;0.60;;;0.40;;
12681;SDS011;6405;59.208;18.216;2023-02-28T12:05:01;1.03;;;0.50;;
12681;SDS011;6405;59.208;18.216;2023-02-28T12:07:41;1.20;;;0.20;;
12681;SDS011;6405;59.208;18.216;2023-02-28T12:10:24;1.20;;;0.47;;
12681;SDS011;6405;59.208;18.216;2023-02-28T12:13:01;0.73;;;0.50;;
12681;SDS011;6405;59.208;18.216;2023-02-28T12:24:39;1.20;;;0.30;;
12681;SDS011;6405;59.208;18.216;2023-02-28T12:27:30;0.90;;;0.57;;
12681;SDS011;6405;59.208;18.216;2023-02-28T12:30:03;1.87;;;0.50;;
12681;SDS011;6405;59.208;18.216;2023-02-28T12:32:41;3.27;;;0.43;;
12681;SDS011;6405;59.208;18.216;2023-02-28T12:35:14;0.60;;;0.43;;
12681;SDS011;6405;59.208;18.216;2023-02-28T12:37:58;0.90;;;0.33;;
12681;SDS011;6405;59.208;18.216;2023-02-28T12:40:32;0.87;;;0.57;;
12681;SDS011;6405;59.208;18.216;2023-02-28T12:43:07;0.90;;;0.60;;
12681;SDS011;6405;59.208;18.216;2023-02-28T12:45:40;2.83;;;0.60;;
12681;SDS011;6405;59.208;18.216;2023-02-28T12:48:15;1.07;;;0.60;;
12681;SDS011;6405;59.208;18.216;2023-02-28T12:50:47;1.83;;;0.67;;
12681;SDS011;6405;59.208;18.216;2023-02-28T12:58:46;0.60;;;0.50;;
12681;SDS011;6405;59.208;18.216;2023-02-28T13:07:03;0.30;;;0.30;;
12681;SDS011;6405;59.208;18.216;2023-02-28T13:09:54;0.20;;;0.20;;
12681;SDS011;6405;59.208;18.216;2023-02-28T13:12:24;0.20;;;0.20;;
12681;SDS011;6405;59.208;18.216;2023-02-28T13:14:51;1.27;;;0.40;;
12681;SDS011;6405;59.208;18.216;2023-02-28T13:17:41;0.57;;;0.30;;
12681;SDS011;6405;59.208;18.216;2023-02-28T13:20:17;0.20;;;0.20;;
12681;SDS011;6405;59.208;18.216;2023-02-28T13:23:00;0.60;;;0.20;;
12681;SDS011;6405;59.208;18.216;2023-02-28T13:27:59;1.13;;;0.50;;
12681;SDS011;6405;59.208;18.216;2023-02-28T13:38:37;1.40;;;0.40;;
12681;SDS011;6405;59.208;18.216;2023-02-28T13:44:04;0.37;;;0.30;;
12681;SDS011;6405;59.208;18.216;2023-02-28T13:46:32;1.43;;;0.40;;
12681;SDS011;6405;59.208;18.216;2023-02-28T13:51:51;1.37;;;0.33;;
12681;SDS011;6405;59.208;18.216;2023-02-28T14:03:56;2.63;;;0.30;;
12681;SDS011;6405;59.208;18.216;2023-02-28T14:06:39;0.30;;;0.23;;
12681;SDS011;6405;59.208;18.216;2023-02-28T14:11:41;0.63;;;0.37;;
12681;SDS011;6405;59.208;18.216;2023-02-28T14:14:09;0.40;;;0.20;;
12681;SDS011;6405;59.208;18.216;2023-02-28T14:16:55;0.53;;;0.30;;
12681;SDS011;6405;59.208;18.216;2023-02-28T14:19:26;0.20;;;0.20;;
12681;SDS011;6405;59.208;18.216;2023-02-28T14:25:01;1.27;;;0.43;;
12681;SDS011;6405;59.208;18.216;2023-02-28T14:33:57;0.40;;;0.30;;
12681;SDS011;6405;59.208;18.216;2023-02-28T14:38:47;0.70;;;0.23;;
12681;SDS011;6405;59.208;18.216;2023-02-28T14:43:54;1.10;;;0.40;;
12681;SDS011;6405;59.208;18.216;2023-02-28T14:46:23;0.30;;;0.30;;
12681;SDS011;6405;59.208;18.216;2023-02-28T14:48:53;0.60;;;0.40;;
12681;SDS011;6405;59.208;18.216;2023-02-28T14:51:20;1.07;;;0.43;;
12681;SDS011;6405;59.208;18.216;2023-02-28T14:53:49;3.20;;;0.60;;
12681;SDS011;6405;59.208;18.216;2023-02-28T14:56:26;1.43;;;0.40;;
12681;SDS011;6405;59.208;18.216;2023-02-28T14:58:57;0.77;;;0.40;;
12681;SDS011;6405;59.208;18.216;2023-02-28T15:01:23;1.40;;;0.43;;
12681;SDS011;6405;59.208;18.216;2023-02-28T15:03:56;1.67;;;0.50;;
12681;SDS011;6405;59.208;18.216;2023-02-28T15:06:24;1.07;;;0.50;;
12681;SDS011;6405;59.208;18.216;2023-02-28T15:09:06;0.87;;;0.53;;
12681;SDS011;6405;59.208;18.216;2023-02-28T15:11:33;0.67;;;0.40;;
12681;SDS011;6405;59.208;18.216;2023-02-28T15:14:00;1.13;;;0.60;;
12681;SDS011;6405;59.208;18.216;2023-02-28T15:16:36;4.30;;;0.70;;
12681;SDS011;6405;59.208;18.216;2023-02-28T15:19:06;0.87;;;0.57;;
12681;SDS011;6405;59.208;18.216;2023-02-28T15:21:41;2.70;;;0.60;;
12681;SDS011;6405;59.208;18.216;2023-02-28T15:24:12;1.10;;;0.70;;
12681;SDS011;6405;59.208;18.216;2023-02-28T15:26:57;1.00;;;0.60;;
12681;SDS011;6405;59.208;18.216;2023-02-28T15:29:26;1.43;;;0.60;;
12681;SDS011;6405;59.208;18.216;2023-02-28T15:32:01;2.40;;;0.70;;
12681;SDS011;6405;59.208;18.216;2023-02-28T15:34:33;0.70;;;0.47;;
12681;SDS011;6405;59.208;18.216;2023-02-28T15:37:01;1.23;;;0.60;;
12681;SDS011;6405;59.208;18.216;2023-02-28T15:39:27;1.07;;;0.50;;
12681;SDS011;6405;59.208;18.216;2023-02-28T15:42:27;3.50;;;1.13;;
12681;SDS011;6405;59.208;18.216;2023-02-28T15:44:47;1.30;;;0.83;;
12681;SDS011;6405;59.208;18.216;2023-02-28T15:47:26;2.27;;;1.30;;
12681;SDS011;6405;59.208;18.216;2023-02-28T15:49:56;2.03;;;1.40;;
12681;SDS011;6405;59.208;18.216;2023-02-28T15:52:27;1.70;;;1.20;;
12681;SDS011;6405;59.208;18.216;2023-02-28T15:55:08;2.30;;;1.70;;
12681;SDS011;6405;59.208;18.216;2023-02-28T15:57:38;1.70;;;1.23;;
12681;SDS011;6405;59.208;18.216;2023-02-28T16:00:05;0.70;;;0.60;;
12681;SDS011;6405;59.208;18.216;2023-02-28T16:02:37;1.37;;;0.60;;
12681;SDS011;6405;59.208;18.216;2023-02-28T16:07:35;1.63;;;0.70;;
12681;SDS011;6405;59.208;18.216;2023-02-28T16:10:05;1.73;;;0.73;;
12681;SDS011;6405;59.208;18.216;2023-02-28T16:12:33;1.67;;;0.47;;
12681;SDS011;6405;59.208;18.216;2023-02-28T16:15:06;3.23;;;1.47;;
12681;SDS011;6405;59.208;18.216;2023-02-28T16:17:35;1.67;;;1.20;;
12681;SDS011;6405;59.208;18.216;2023-02-28T16:20:11;3.63;;;1.07;;
12681;SDS011;6405;59.208;18.216;2023-02-28T16:22:39;1.40;;;1.10;;
12681;SDS011;6405;59.208;18.216;2023-02-28T16:25:04;1.93;;;0.70;;
12681;SDS011;6405;59.208;18.216;2023-02-28T16:27:34;4.53;;;0.90;;
12681;SDS011;6405;59.208;18.216;2023-02-28T16:30:03;0.93;;;0.73;;
12681;SDS011;6405;59.208;18.216;2023-02-28T16:32:30;1.77;;;0.70;;
12681;SDS011;6405;59.208;18.216;2023-02-28T16:34:58;2.53;;;0.90;;
12681;SDS011;6405;59.208;18.216;2023-02-28T16:37:24;1.53;;;0.90;;
12681;SDS011;6405;59.208;18.216;2023-02-28T16:39:51;1.07;;;0.70;;
12681;SDS011;6405;59.208;18.216;2023-02-28T16:42:21;2.03;;;0.90;;
12681;SDS011;6405;59.208;18.216;2023-02-28T16:44:50;0.90;;;0.50;;
12681;SDS011;6405;59.208;18.216;2023-02-28T16:47:17;2.57;;;0.83;;
12681;SDS011;6405;59.208;18.216;2023-02-28T16:49:43;3.70;;;1.30;;
12681;SDS011;6405;59.208;18.216;2023-02-28T16:52:09;1.63;;;1.00;;
12681;SDS011;6405;59.208;18.216;2023-02-28T16:54:36;1.57;;;0.87;;
12681;SDS011;6405;59.208;18.216;2023-02-28T16:57:03;2.20;;;1.03;;
12681;SDS011;6405;59.208;18.216;2023-02-28T16:59:30;2.53;;;0.90;;
12681;SDS011;6405;59.208;18.216;2023-02-28T17:01:57;1.77;;;0.70;;
12681;SDS011;6405;59.208;18.216;2023-02-28T17:04:26;0.70;;;0.50;;
12681;SDS011;6405;59.208;18.216;2023-02-28T17:06:52;2.30;;;0.70;;
12681;SDS011;6405;59.208;18.216;2023-02-28T17:09:21;0.90;;;0.70;;
12681;SDS011;6405;59.208;18.216;2023-02-28T17:11:48;5.57;;;1.10;;
12681;SDS011;6405;59.208;18.216;2023-02-28T17:14:14;0.90;;;0.70;;
12681;SDS011;6405;59.208;18.216;2023-02-28T17:16:40;2.27;;;0.77;;
12681;SDS011;6405;59.208;18.216;2023-02-28T17:19:09;1.40;;;0.60;;
12681;SDS011;6405;59.208;18.216;2023-02-28T17:21:38;3.03;;;0.73;;
12681;SDS011;6405;59.208;18.216;2023-02-28T17:24:06;1.50;;;0.70;;